Time;durP1;ratioP1;P1;durP2;ratioP2;P2;SDS_P1;SDS_P2;PMS_P1;PMS_P2;Temp;Humidity;BMP_temperature;BMP_pressure;BME280_temperature;BME280_humidity;BME280_pressure;Samples;Min_cycle;Max_cycle;Signal;HPM_P1;HPM_P2
2024/03/20 00:02:06;;;;;;;60.17;31.63;;;11.70;99.90;;;;;;5012946;28;20057;-77
2024/03/20 00:04:32;;;;;;;59.25;33.15;;;11.70;99.90;;;;;;5012940;28;20027;-79
2024/03/20 00:06:58;;;;;;;64.43;32.60;;;11.70;99.90;;;;;;5014241;28;20027;-78
2024/03/20 00:09:24;;;;;;;60.15;33.22;;;11.70;99.90;;;;;;5012521;28;20054;-78
2024/03/20 00:11:49;;;;;;;64.78;35.25;;;11.70;99.90;;;;;;5013202;28;20034;-77
2024/03/20 00:14:15;;;;;;;60.78;32.97;;;11.70;99.90;;;;;;5012418;28;20034;-76
2024/03/20 00:16:41;;;;;;;64.78;33.80;;;11.60;99.90;;;;;;5012735;28;20035;-77
2024/03/20 00:19:07;;;;;;;60.03;33.47;;;11.60;99.90;;;;;;5013579;28;20041;-78
2024/03/20 00:21:34;;;;;;;64.38;33.25;;;11.60;99.90;;;;;;5011683;28;20111;-78
2024/03/20 00:24:00;;;;;;;66.22;33.58;;;11.60;99.90;;;;;;5012620;28;20398;-79
2024/03/20 00:26:26;;;;;;;62.13;35.08;;;11.60;99.90;;;;;;5012969;28;20022;-76
2024/03/20 00:28:51;;;;;;;60.10;33.90;;;11.60;99.90;;;;;;5012360;28;20038;-78
2024/03/20 00:31:17;;;;;;;63.72;33.78;;;11.50;99.90;;;;;;5012268;28;20126;-76
2024/03/20 00:33:43;;;;;;;59.17;33.63;;;11.60;99.90;;;;;;5012233;28;20023;-76
2024/03/20 00:36:08;;;;;;;58.10;32.75;;;11.60;99.90;;;;;;5013805;28;20090;-77
2024/03/20 00:38:34;;;;;;;60.13;33.22;;;11.70;99.90;;;;;;5011881;28;20069;-77
2024/03/20 00:41:00;;;;;;;58.53;33.45;;;11.60;99.90;;;;;;5013594;28;20045;-78
2024/03/20 00:43:25;;;;;;;62.35;33.47;;;11.60;99.90;;;;;;5027600;28;20121;-79
2024/03/20 00:45:51;;;;;;;61.03;34.17;;;11.60;99.90;;;;;;5013311;28;20022;-76
2024/03/20 00:48:16;;;;;;;68.50;35.40;;;11.50;99.90;;;;;;5012608;28;20029;-78
2024/03/20 00:50:42;;;;;;;63.42;33.78;;;11.50;99.90;;;;;;5013680;28;20110;-78
2024/03/20 00:53:07;;;;;;;60.90;33.97;;;11.40;99.90;;;;;;5012995;28;20035;-78
2024/03/20 00:55:35;;;;;;;60.88;33.35;;;11.40;99.90;;;;;;5013552;28;20046;-76
2024/03/20 00:58:00;;;;;;;62.05;32.72;;;11.40;99.90;;;;;;5013259;28;20027;-76
2024/03/20 01:00:26;;;;;;;62.78;34.17;;;11.40;99.90;;;;;;5011994;28;20025;-80
2024/03/20 01:02:53;;;;;;;58.38;33.25;;;11.40;99.90;;;;;;5011908;28;20050;-76
2024/03/20 01:05:19;;;;;;;61.45;34.03;;;11.40;99.90;;;;;;5011752;28;20035;-77
2024/03/20 01:07:44;;;;;;;67.78;35.13;;;11.40;99.90;;;;;;5013723;28;20018;-79
2024/03/20 01:10:10;;;;;;;61.17;33.28;;;11.40;99.90;;;;;;5013301;28;21071;-77
2024/03/20 01:12:36;;;;;;;61.15;32.58;;;11.40;99.90;;;;;;5011430;28;20030;-77
2024/03/20 01:15:03;;;;;;;65.78;34.28;;;11.40;99.90;;;;;;5012094;28;20026;-79
2024/03/20 01:17:29;;;;;;;60.63;32.28;;;11.40;99.90;;;;;;5012881;28;20034;-79
2024/03/20 01:19:55;;;;;;;67.10;35.35;;;11.30;99.90;;;;;;5027678;28;20061;-77
2024/03/20 01:22:21;;;;;;;67.90;35.88;;;11.30;99.90;;;;;;5012657;28;20019;-77
2024/03/20 01:24:46;;;;;;;70.00;35.60;;;11.30;99.90;;;;;;5013312;28;20084;-80
2024/03/20 01:27:12;;;;;;;67.50;36.17;;;11.30;99.90;;;;;;5012354;28;20037;-77
2024/03/20 01:29:37;;;;;;;67.78;36.63;;;11.30;99.90;;;;;;5011999;28;20120;-76
2024/03/20 01:32:03;;;;;;;65.95;35.90;;;11.30;99.90;;;;;;5011204;28;20066;-78
2024/03/20 01:34:29;;;;;;;67.40;36.97;;;11.20;99.90;;;;;;5011325;28;20042;-76
2024/03/20 01:36:55;;;;;;;66.97;35.63;;;11.20;99.90;;;;;;5012578;28;20046;-78
2024/03/20 01:39:21;;;;;;;71.07;36.00;;;11.20;99.90;;;;;;5012235;28;20036;-77
2024/03/20 01:41:46;;;;;;;71.07;35.90;;;11.20;99.90;;;;;;5012618;28;20038;-76
2024/03/20 01:44:12;;;;;;;65.10;35.45;;;11.10;99.90;;;;;;5011873;28;20053;-77
2024/03/20 01:46:40;;;;;;;70.07;37.55;;;11.20;99.90;;;;;;5012658;28;20074;-77
2024/03/20 01:49:06;;;;;;;67.28;36.13;;;11.10;99.90;;;;;;5011388;28;20125;-77
2024/03/20 01:51:32;;;;;;;65.45;35.95;;;11.10;99.90;;;;;;5011927;28;20022;-76
2024/03/20 01:54:02;;;;;;;68.38;36.42;;;11.10;99.90;;;;;;5011476;28;20026;-76
2024/03/20 01:56:28;;;;;;;65.13;35.67;;;11.00;99.90;;;;;;5012757;28;20030;-76
2024/03/20 01:58:55;;;;;;;69.45;36.65;;;11.00;99.90;;;;;;5012713;28;20057;-77
2024/03/20 02:01:21;;;;;;;64.15;34.88;;;11.00;99.90;;;;;;5010896;28;20038;-76
2024/03/20 02:03:47;;;;;;;68.13;36.63;;;11.00;99.90;;;;;;5012830;28;20586;-77
2024/03/20 02:06:26;;;;;;;65.03;36.15;;;10.90;99.90;;;;;;5012865;28;20037;-76
2024/03/20 02:08:53;;;;;;;68.68;36.85;;;11.00;99.90;;;;;;5011036;28;20038;-78
2024/03/20 02:11:26;;;;;;;65.72;36.10;;;11.00;99.90;;;;;;5012248;28;20052;-77
2024/03/20 02:13:56;;;;;;;67.05;35.53;;;11.00;99.90;;;;;;5011257;28;20035;-78
2024/03/20 02:16:23;;;;;;;67.50;36.92;;;10.90;99.90;;;;;;5012615;28;20038;-78
2024/03/20 02:18:50;;;;;;;66.72;37.28;;;10.90;99.90;;;;;;5012398;28;20022;-78
2024/03/20 02:21:17;;;;;;;63.95;35.60;;;10.90;99.90;;;;;;5011868;28;20023;-78
2024/03/20 02:23:43;;;;;;;64.32;34.67;;;10.80;99.90;;;;;;5012256;28;20030;-78
2024/03/20 02:26:09;;;;;;;66.80;36.80;;;10.90;99.90;;;;;;5012613;28;20019;-75
2024/03/20 02:28:38;;;;;;;67.65;37.33;;;10.90;99.90;;;;;;5011876;28;20022;-76
2024/03/20 02:31:04;;;;;;;67.30;36.50;;;10.90;99.90;;;;;;5011057;28;20388;-76
2024/03/20 02:33:30;;;;;;;69.15;37.70;;;10.90;99.90;;;;;;5010731;28;20026;-77
2024/03/20 02:35:56;;;;;;;65.22;36.33;;;10.80;99.90;;;;;;5010832;28;20040;-77
2024/03/20 02:38:29;;;;;;;69.60;36.40;;;10.90;99.90;;;;;;5012137;28;20112;-78
2024/03/20 02:40:56;;;;;;;69.75;37.38;;;10.80;99.90;;;;;;5011125;28;20090;-76
2024/03/20 02:43:25;;;;;;;70.55;38.35;;;10.80;99.90;;;;;;5010554;28;20022;-75
2024/03/20 02:45:51;;;;;;;70.55;37.53;;;10.70;99.90;;;;;;5011702;28;20022;-79
2024/03/20 02:48:17;;;;;;;76.32;38.58;;;10.70;99.90;;;;;;5010946;28;20026;-77
2024/03/20 02:50:43;;;;;;;73.85;37.40;;;10.70;99.90;;;;;;5012014;28;20089;-77
2024/03/20 02:53:09;;;;;;;69.15;37.13;;;10.70;99.90;;;;;;5011933;28;20061;-76
2024/03/20 02:55:38;;;;;;;68.47;37.90;;;10.80;99.90;;;;;;5015296;28;20046;-75
2024/03/20 02:58:04;;;;;;;79.95;38.50;;;10.70;99.90;;;;;;5014321;28;20118;-78
2024/03/20 03:00:30;;;;;;;68.05;37.42;;;10.70;99.90;;;;;;5014051;28;20019;-78
2024/03/20 03:02:57;;;;;;;72.13;38.30;;;10.70;99.90;;;;;;5013852;28;20093;-76
2024/03/20 03:05:24;;;;;;;71.68;38.05;;;10.70;99.90;;;;;;5014113;28;20029;-77
2024/03/20 03:07:50;;;;;;;76.38;37.42;;;10.80;99.90;;;;;;5015647;28;20429;-77
2024/03/20 03:10:16;;;;;;;72.82;38.80;;;10.70;99.90;;;;;;5014937;28;20048;-76
2024/03/20 03:12:42;;;;;;;66.22;36.17;;;10.70;99.90;;;;;;5014993;28;20110;-77
2024/03/20 03:15:09;;;;;;;72.68;38.88;;;10.70;99.90;;;;;;5029653;28;20042;-78
2024/03/20 03:17:35;;;;;;;74.43;38.35;;;10.60;99.90;;;;;;5013114;28;20026;-77
2024/03/20 03:20:04;;;;;;;71.07;39.42;;;10.60;99.90;;;;;;5013973;28;20463;-77
2024/03/20 03:22:30;;;;;;;70.32;37.63;;;10.60;99.90;;;;;;5014189;28;20022;-76
2024/03/20 03:24:56;;;;;;;70.75;38.05;;;10.60;99.90;;;;;;5014997;28;20056;-75
2024/03/20 03:27:21;;;;;;;71.13;38.15;;;10.50;99.90;;;;;;5013770;28;20065;-78
2024/03/20 03:29:47;;;;;;;67.63;36.63;;;10.60;99.90;;;;;;5013628;28;20033;-76
2024/03/20 03:32:12;;;;;;;71.47;37.08;;;10.60;99.90;;;;;;5013266;28;20018;-78
2024/03/20 03:34:38;;;;;;;71.80;38.00;;;10.60;99.90;;;;;;5015020;28;20033;-77
2024/03/20 03:37:04;;;;;;;73.43;38.03;;;10.60;99.90;;;;;;5014972;28;20060;-76
2024/03/20 03:39:29;;;;;;;73.35;38.75;;;10.50;99.90;;;;;;5012959;28;20027;-75
2024/03/20 03:41:55;;;;;;;75.97;39.85;;;10.50;99.90;;;;;;5013704;28;20018;-78
2024/03/20 03:44:20;;;;;;;78.65;39.00;;;10.50;99.90;;;;;;5014716;28;20110;-77
2024/03/20 03:46:46;;;;;;;76.10;39.33;;;10.50;99.90;;;;;;5013515;28;20053;-76
2024/03/20 03:49:12;;;;;;;73.38;39.67;;;10.50;99.90;;;;;;5013301;28;20030;-77
2024/03/20 03:51:38;;;;;;;75.43;38.40;;;10.50;99.90;;;;;;5014864;28;20061;-77
2024/03/20 03:54:04;;;;;;;73.93;38.92;;;10.50;99.90;;;;;;5013259;28;20018;-77
2024/03/20 03:56:30;;;;;;;73.03;37.70;;;10.50;99.90;;;;;;5013284;28;20044;-78
2024/03/20 03:58:55;;;;;;;75.72;38.63;;;10.50;99.90;;;;;;5014927;28;20018;-79
2024/03/20 04:01:21;;;;;;;73.20;36.75;;;10.50;99.90;;;;;;5013908;28;20077;-76
2024/03/20 04:03:47;;;;;;;77.95;36.80;;;10.50;99.90;;;;;;5013679;28;20042;-76
2024/03/20 04:06:13;;;;;;;67.57;37.90;;;10.60;99.90;;;;;;5012809;28;20380;-75
2024/03/20 04:08:38;;;;;;;76.03;38.10;;;10.50;99.90;;;;;;5014482;28;20022;-75
2024/03/20 04:11:05;;;;;;;73.00;38.35;;;10.60;99.90;;;;;;5014344;28;20026;-75
2024/03/20 04:13:31;;;;;;;73.70;37.72;;;10.60;99.90;;;;;;5015196;28;20018;-78
2024/03/20 04:15:58;;;;;;;77.28;38.92;;;10.60;99.90;;;;;;5015469;28;20029;-75
2024/03/20 04:18:23;;;;;;;72.70;38.83;;;10.60;99.90;;;;;;5014033;28;20026;-76
2024/03/20 04:20:50;;;;;;;72.82;39.50;;;10.60;99.90;;;;;;5014737;28;20054;-79
2024/03/20 04:23:15;;;;;;;75.00;39.22;;;10.60;99.90;;;;;;5013539;28;20029;-78
2024/03/20 04:25:41;;;;;;;78.63;37.95;;;10.60;99.90;;;;;;5015212;28;20026;-77
2024/03/20 04:28:07;;;;;;;74.95;38.45;;;10.60;99.90;;;;;;5013140;28;20033;-75
2024/03/20 04:30:33;;;;;;;80.22;39.20;;;10.60;99.90;;;;;;5015622;28;20032;-77
2024/03/20 04:32:59;;;;;;;71.38;37.85;;;10.60;99.90;;;;;;5015143;28;20472;-77
2024/03/20 04:35:25;;;;;;;76.38;38.83;;;10.60;99.90;;;;;;5015755;28;20065;-78
2024/03/20 04:37:51;;;;;;;77.13;39.15;;;10.60;99.90;;;;;;5015085;28;20048;-75
2024/03/20 04:40:17;;;;;;;81.72;39.17;;;10.60;99.90;;;;;;5012983;28;20027;-79
2024/03/20 04:42:42;;;;;;;78.65;38.85;;;10.60;99.90;;;;;;5015336;28;20029;-77
2024/03/20 04:45:12;;;;;;;72.60;38.30;;;10.60;99.90;;;;;;5015259;28;20057;-79
2024/03/20 04:47:38;;;;;;;79.20;40.72;;;10.60;99.90;;;;;;5014377;28;20105;-78
2024/03/20 04:50:09;;;;;;;79.38;39.58;;;10.60;99.90;;;;;;5012337;28;20026;-76
2024/03/20 04:52:34;;;;;;;79.78;39.88;;;10.50;99.90;;;;;;5015080;28;20037;-79
2024/03/20 04:55:00;;;;;;;79.53;41.15;;;10.50;99.90;;;;;;5014428;28;20032;-76
2024/03/20 04:57:25;;;;;;;76.35;38.95;;;10.50;99.90;;;;;;5013945;28;20029;-81
2024/03/20 04:59:51;;;;;;;74.97;39.72;;;10.40;99.90;;;;;;5014906;28;20038;-78
2024/03/20 05:02:17;;;;;;;77.32;39.42;;;10.40;99.90;;;;;;5014550;28;20046;-77
2024/03/20 05:04:42;;;;;;;75.07;40.97;;;10.40;99.90;;;;;;5013452;28;20037;-79
2024/03/20 05:07:08;;;;;;;78.80;41.17;;;10.30;99.90;;;;;;5015667;28;20045;-77
2024/03/20 05:09:33;;;;;;;77.82;40.83;;;10.20;99.90;;;;;;5012920;28;20022;-75
2024/03/20 05:11:59;;;;;;;86.20;41.90;;;10.10;99.90;;;;;;5012244;28;20052;-76
2024/03/20 05:14:24;;;;;;;73.57;39.05;;;10.10;99.90;;;;;;5015041;28;20027;-77
2024/03/20 05:16:51;;;;;;;88.28;42.83;;;10.10;99.90;;;;;;5011769;28;20395;-75
2024/03/20 05:19:17;;;;;;;83.82;40.65;;;10.10;99.90;;;;;;5013644;28;20014;-78
2024/03/20 05:21:43;;;;;;;83.57;42.60;;;10.10;99.90;;;;;;5012436;28;20036;-76
2024/03/20 05:24:08;;;;;;;80.68;40.88;;;10.10;99.90;;;;;;5016398;28;20120;-75
2024/03/20 05:26:34;;;;;;;81.10;42.05;;;10.10;99.90;;;;;;5015556;28;20037;-74
2024/03/20 05:28:59;;;;;;;83.72;41.17;;;10.10;99.90;;;;;;5012595;28;20034;-76
2024/03/20 05:31:27;;;;;;;83.10;41.05;;;10.10;99.90;;;;;;5011539;28;20121;-76
2024/03/20 05:33:53;;;;;;;80.72;40.72;;;10.20;99.90;;;;;;5011857;28;20022;-78
2024/03/20 05:36:19;;;;;;;76.97;39.83;;;10.20;99.90;;;;;;5012282;28;20621;-76
2024/03/20 05:38:44;;;;;;;78.95;40.53;;;10.20;99.90;;;;;;5012179;28;20030;-77
2024/03/20 05:41:10;;;;;;;67.38;37.75;;;10.20;99.90;;;;;;5012893;28;20028;-76
2024/03/20 05:43:36;;;;;;;71.93;37.63;;;10.30;99.90;;;;;;5013230;28;20026;-76
2024/03/20 05:46:03;;;;;;;72.60;37.72;;;10.40;99.90;;;;;;5014705;28;20086;-75
2024/03/20 05:48:29;;;;;;;71.10;38.25;;;10.40;99.90;;;;;;5012974;28;20023;-76
2024/03/20 05:50:56;;;;;;;74.47;40.53;;;10.50;99.90;;;;;;5010642;28;20026;-75
2024/03/20 05:53:22;;;;;;;75.25;38.97;;;10.40;99.90;;;;;;5012892;28;20026;-75
2024/03/20 05:55:48;;;;;;;70.43;37.97;;;10.50;99.90;;;;;;5011334;28;20553;-74
2024/03/20 05:58:14;;;;;;;77.32;39.03;;;10.50;99.90;;;;;;5013180;28;20090;-76
2024/03/20 06:00:40;;;;;;;75.32;37.85;;;10.50;99.90;;;;;;5009666;28;20047;-74
2024/03/20 06:03:06;;;;;;;77.97;39.85;;;10.50;99.90;;;;;;5026104;28;20042;-74
2024/03/20 06:05:33;;;;;;;73.32;37.95;;;10.50;99.90;;;;;;5011312;28;20030;-75
2024/03/20 06:07:59;;;;;;;67.90;37.22;;;10.60;99.90;;;;;;5011613;28;20029;-75
2024/03/20 06:10:24;;;;;;;76.65;39.47;;;10.60;99.90;;;;;;5012014;28;20550;-76
2024/03/20 06:12:50;;;;;;;66.88;37.55;;;10.50;99.90;;;;;;5013402;28;20056;-74
2024/03/20 06:15:16;;;;;;;72.80;39.58;;;10.50;99.90;;;;;;5011597;28;20066;-74
2024/03/20 06:17:42;;;;;;;69.22;38.03;;;10.60;99.90;;;;;;5011819;28;20029;-74
2024/03/20 06:20:13;;;;;;;71.35;37.60;;;10.60;99.90;;;;;;5012191;28;20023;-75
2024/03/20 06:22:38;;;;;;;75.80;38.67;;;10.60;99.90;;;;;;5011208;28;20045;-73
2024/03/20 06:25:07;;;;;;;68.30;37.67;;;10.70;99.90;;;;;;5011572;28;20018;-75
2024/03/20 06:27:36;;;;;;;71.53;39.70;;;10.70;99.90;;;;;;5012576;28;20886;-74
2024/03/20 06:30:13;;;;;;;70.05;38.47;;;10.70;99.90;;;;;;5015438;28;20084;-75
2024/03/20 06:32:39;;;;;;;73.50;38.75;;;10.70;99.90;;;;;;5016573;28;20034;-75
2024/03/20 06:35:06;;;;;;;69.65;38.05;;;10.70;99.90;;;;;;5015996;28;20080;-77
2024/03/20 06:37:32;;;;;;;78.57;42.10;;;10.80;99.90;;;;;;5016376;28;20112;-75
2024/03/20 06:39:58;;;;;;;87.57;47.15;;;10.80;99.90;;;;;;5016541;28;20030;-75
2024/03/20 06:42:24;;;;;;;83.95;43.50;;;10.80;99.90;;;;;;5015955;28;20030;-75
2024/03/20 06:44:50;;;;;;;72.68;40.30;;;10.80;99.90;;;;;;5015440;28;20036;-77
2024/03/20 06:47:19;;;;;;;72.65;40.50;;;10.80;99.90;;;;;;5015832;28;20414;-79
2024/03/20 06:49:45;;;;;;;69.75;36.92;;;10.80;99.90;;;;;;5028976;28;20025;-75
2024/03/20 06:52:20;;;;;;;68.55;36.97;;;10.90;99.90;;;;;;5015037;28;20022;-76
2024/03/20 06:54:47;;;;;;;68.43;37.50;;;10.90;99.90;;;;;;5014399;28;20029;-76
2024/03/20 06:57:13;;;;;;;63.58;33.85;;;11.00;99.90;;;;;;5015288;28;20034;-76
2024/03/20 06:59:42;;;;;;;58.72;33.53;;;11.00;99.90;;;;;;5029777;28;20030;-78
2024/03/20 07:02:08;;;;;;;59.58;33.15;;;11.00;99.90;;;;;;5015625;28;20101;-77
2024/03/20 07:04:34;;;;;;;60.63;32.53;;;11.10;99.90;;;;;;5016923;28;20675;-74
2024/03/20 07:07:03;;;;;;;59.30;32.85;;;11.10;99.90;;;;;;5017875;28;20038;-76
2024/03/20 07:09:30;;;;;;;57.92;32.47;;;11.20;99.90;;;;;;5016896;28;20033;-75
2024/03/20 07:11:55;;;;;;;66.78;36.50;;;11.30;99.90;;;;;;5015090;28;20026;-77
2024/03/20 07:14:21;;;;;;;64.80;34.42;;;11.30;99.90;;;;;;5015290;28;20522;-76
2024/03/20 07:16:46;;;;;;;69.15;37.45;;;11.30;99.90;;;;;;5014505;28;20069;-74
2024/03/20 07:19:13;;;;;;;67.93;36.58;;;11.30;99.90;;;;;;5015567;28;20065;-74
2024/03/20 07:21:41;;;;;;;65.53;35.75;;;11.30;99.90;;;;;;5015202;28;20033;-75
2024/03/20 07:24:07;;;;;;;64.43;34.17;;;11.30;99.90;;;;;;5015236;28;20735;-75
2024/03/20 07:26:38;;;;;;;63.13;35.28;;;11.30;99.90;;;;;;5014791;28;20041;-74
2024/03/20 07:29:05;;;;;;;67.22;36.10;;;11.40;99.90;;;;;;5014171;28;20026;-75
2024/03/20 07:31:33;;;;;;;65.32;36.63;;;11.40;99.90;;;;;;5015033;28;20098;-76
2024/03/20 07:33:58;;;;;;;67.90;35.65;;;11.50;99.90;;;;;;5014686;28;20041;-75
2024/03/20 07:36:24;;;;;;;65.43;35.08;;;11.50;99.90;;;;;;5038260;28;20026;-74
2024/03/20 07:38:50;;;;;;;61.72;34.83;;;11.50;99.90;;;;;;5013517;28;20106;-76
2024/03/20 07:41:15;;;;;;;60.60;35.10;;;11.50;99.90;;;;;;5014268;28;20058;-77
2024/03/20 07:43:47;;;;;;;66.90;37.65;;;11.60;99.90;;;;;;5014329;28;20052;-76
2024/03/20 07:46:13;;;;;;;71.13;38.13;;;11.60;99.90;;;;;;5014256;28;20030;-74
2024/03/20 07:48:46;;;;;;;64.57;37.35;;;11.70;99.90;;;;;;5030165;28;20053;-76
2024/03/20 07:51:13;;;;;;;62.03;35.50;;;11.70;99.90;;;;;;5014138;28;20027;-74
2024/03/20 07:53:38;;;;;;;64.93;35.63;;;11.90;99.90;;;;;;5014278;28;20026;-74
2024/03/20 07:56:05;;;;;;;61.83;35.28;;;11.90;99.90;;;;;;5015230;28;20026;-77
2024/03/20 07:58:31;;;;;;;64.72;35.33;;;12.00;99.90;;;;;;5014809;28;20097;-75
2024/03/20 08:00:58;;;;;;;64.47;36.03;;;12.10;99.90;;;;;;5012666;28;20061;-76
2024/03/20 08:03:24;;;;;;;60.53;34.85;;;12.30;99.90;;;;;;5013903;28;20125;-76
2024/03/20 08:05:50;;;;;;;59.35;33.17;;;12.20;99.90;;;;;;5015380;28;20061;-74
2024/03/20 08:08:15;;;;;;;59.63;34.60;;;12.30;99.90;;;;;;5012155;28;20031;-76
2024/03/20 08:10:41;;;;;;;61.45;33.50;;;12.40;99.90;;;;;;5015266;28;20033;-75
2024/03/20 08:13:09;;;;;;;61.60;32.80;;;12.40;99.90;;;;;;5016074;28;20022;-76
2024/03/20 08:15:36;;;;;;;57.17;33.15;;;12.60;99.90;;;;;;5013545;28;20471;-75
2024/03/20 08:18:02;;;;;;;57.65;31.83;;;12.70;99.90;;;;;;5013511;28;20026;-74
2024/03/20 08:20:28;;;;;;;56.22;32.08;;;12.90;99.90;;;;;;5014305;28;20034;-76
2024/03/20 08:22:53;;;;;;;56.95;32.13;;;13.00;99.90;;;;;;5013380;28;20090;-75
2024/03/20 08:25:19;;;;;;;50.83;30.05;;;13.20;99.90;;;;;;5012648;28;20410;-75
2024/03/20 08:27:45;;;;;;;50.70;29.83;;;13.40;99.90;;;;;;5012602;28;20447;-76
2024/03/20 08:30:13;;;;;;;53.08;30.60;;;13.60;99.90;;;;;;5014466;28;20029;-74
2024/03/20 08:32:39;;;;;;;56.30;31.25;;;13.80;99.90;;;;;;5013214;28;20030;-76
2024/03/20 08:35:07;;;;;;;50.25;30.30;;;13.90;99.90;;;;;;5014742;28;20045;-76
2024/03/20 08:37:34;;;;;;;48.53;31.25;;;14.00;99.90;;;;;;5013561;28;20042;-74
2024/03/20 08:40:01;;;;;;;48.65;29.48;;;14.20;99.90;;;;;;5012005;28;20022;-74
2024/03/20 08:42:27;;;;;;;56.97;31.52;;;14.30;99.90;;;;;;5013549;28;20080;-76
2024/03/20 08:44:53;;;;;;;46.92;28.58;;;14.50;99.90;;;;;;5013331;28;20033;-73
2024/03/20 08:47:18;;;;;;;50.30;26.67;;;14.60;99.90;;;;;;5012006;28;20628;-74
2024/03/20 08:49:44;;;;;;;48.28;29.55;;;14.80;99.90;;;;;;5013583;28;20026;-75
2024/03/20 08:52:12;;;;;;;41.78;24.60;;;15.00;99.90;;;;;;5013951;28;20069;-74
2024/03/20 08:54:44;;;;;;;44.13;24.42;;;15.10;99.90;;;;;;5012188;28;20049;-74
2024/03/20 08:57:13;;;;;;;46.90;26.98;;;15.30;99.90;;;;;;5012374;28;20038;-74
2024/03/20 08:59:38;;;;;;;48.17;26.25;;;15.40;99.90;;;;;;5013564;28;20109;-74
2024/03/20 09:02:04;;;;;;;41.83;24.67;;;15.40;99.90;;;;;;5013124;28;20098;-75
2024/03/20 09:04:30;;;;;;;36.17;21.75;;;15.40;99.90;;;;;;5012926;28;20460;-75
2024/03/20 09:06:55;;;;;;;31.23;15.95;;;15.50;99.90;;;;;;5014463;28;20030;-72
2024/03/20 09:09:21;;;;;;;25.13;14.52;;;15.50;99.90;;;;;;5011882;28;20084;-74
2024/03/20 09:11:47;;;;;;;28.58;14.75;;;15.60;99.90;;;;;;5012497;28;20654;-74
2024/03/20 09:14:13;;;;;;;26.35;14.32;;;15.50;99.90;;;;;;5013293;28;20030;-75
2024/03/20 09:16:38;;;;;;;26.25;14.75;;;15.60;99.90;;;;;;5013124;28;20046;-76
2024/03/20 09:19:04;;;;;;;26.48;13.30;;;15.50;99.90;;;;;;5011573;28;20021;-73
2024/03/20 09:21:33;;;;;;;26.27;13.65;;;15.40;99.90;;;;;;5011489;28;20395;-75
2024/03/20 09:23:58;;;;;;;36.15;12.60;;;15.40;99.90;;;;;;5012854;28;20026;-77
2024/03/20 09:26:24;;;;;;;21.63;11.60;;;15.40;99.90;;;;;;5011821;28;20052;-76
2024/03/20 09:28:49;;;;;;;20.38;11.35;;;15.40;99.90;;;;;;5009315;28;20033;-75
2024/03/20 09:31:15;;;;;;;21.52;11.60;;;15.40;99.90;;;;;;5012177;28;20034;-75
2024/03/20 09:33:41;;;;;;;30.00;15.85;;;15.50;99.90;;;;;;5011233;28;20049;-73
2024/03/20 09:36:06;;;;;;;29.77;18.20;;;15.70;99.90;;;;;;5013405;28;20045;-75
2024/03/20 09:38:32;;;;;;;29.42;16.10;;;15.80;99.90;;;;;;5014054;28;20045;-73
2024/03/20 09:40:59;;;;;;;29.52;15.88;;;16.00;99.90;;;;;;5013360;28;20045;-74
2024/03/20 09:43:25;;;;;;;21.77;12.55;;;16.10;99.90;;;;;;5012038;28;20030;-73
2024/03/20 09:45:53;;;;;;;18.67;9.35;;;16.40;99.90;;;;;;5009814;28;20033;-74
2024/03/20 09:48:24;;;;;;;15.25;7.75;;;16.40;99.90;;;;;;5010982;28;20037;-74
2024/03/20 09:50:51;;;;;;;15.65;5.55;;;16.50;99.90;;;;;;5012737;28;20034;-74
2024/03/20 09:53:16;;;;;;;16.35;8.05;;;16.70;99.90;;;;;;5012985;28;20021;-76
2024/03/20 09:55:44;;;;;;;16.50;8.15;;;16.80;99.90;;;;;;5008348;28;20030;-75
2024/03/20 09:58:13;;;;;;;18.92;9.13;;;16.80;99.90;;;;;;5012609;28;20102;-74
2024/03/20 10:00:39;;;;;;;19.17;9.40;;;16.90;99.90;;;;;;5011242;28;20037;-74
2024/03/20 10:03:07;;;;;;;19.00;8.70;;;17.00;99.90;;;;;;5012918;28;20053;-76
2024/03/20 10:05:33;;;;;;;19.80;9.43;;;17.10;99.90;;;;;;5015854;28;20105;-76
2024/03/20 10:07:59;;;;;;;16.65;8.73;;;17.10;99.90;;;;;;5015401;28;20034;-77
2024/03/20 10:10:24;;;;;;;18.33;8.40;;;17.10;99.90;;;;;;5013746;28;20044;-74
2024/03/20 10:12:50;;;;;;;16.45;8.30;;;17.10;99.90;;;;;;5017342;28;20036;-75
2024/03/20 10:15:24;;;;;;;15.18;7.25;;;17.10;99.90;;;;;;5016377;28;20034;-75
2024/03/20 10:17:50;;;;;;;17.10;7.13;;;17.10;99.90;;;;;;5015159;28;20029;-76
2024/03/20 10:20:21;;;;;;;16.20;7.25;;;17.10;99.90;;;;;;5014011;28;20022;-75
2024/03/20 10:22:47;;;;;;;16.27;7.68;;;17.10;99.90;;;;;;5039283;28;20022;-76
2024/03/20 10:25:16;;;;;;;13.55;7.75;;;17.00;99.90;;;;;;5017038;28;20041;-77
2024/03/20 10:27:44;;;;;;;12.25;7.32;;;17.00;99.90;;;;;;5019529;28;20018;-76
2024/03/20 10:30:15;;;;;;;17.85;7.50;;;17.00;99.90;;;;;;5015519;28;20040;-74
2024/03/20 10:32:46;;;;;;;18.75;7.78;;;17.00;99.90;;;;;;5016460;28;20042;-75
2024/03/20 10:35:20;;;;;;;12.88;6.15;;;17.00;99.90;;;;;;5016198;28;20030;-76
2024/03/20 10:37:47;;;;;;;13.20;6.38;;;17.00;99.90;;;;;;5015701;28;20029;-77
2024/03/20 10:40:17;;;;;;;14.38;7.03;;;17.00;99.90;;;;;;5014829;28;20088;-75
2024/03/20 10:42:45;;;;;;;13.45;6.78;;;17.00;99.90;;;;;;5015050;28;20046;-75
2024/03/20 10:45:11;;;;;;;13.13;7.28;;;16.90;99.90;;;;;;5014468;28;20057;-76
2024/03/20 10:47:39;;;;;;;15.52;6.68;;;17.00;99.90;;;;;;5013905;28;20030;-76
2024/03/20 10:50:17;;;;;;;15.02;7.00;;;16.90;99.90;;;;;;5016226;28;20045;-76
2024/03/20 10:52:45;;;;;;;15.43;7.22;;;16.90;99.90;;;;;;5014423;28;20030;-75
2024/03/20 10:55:12;;;;;;;17.65;7.97;;;16.90;99.90;;;;;;5015934;28;20108;-75
2024/03/20 10:57:39;;;;;;;13.50;6.68;;;16.90;99.90;;;;;;5015414;28;20027;-75
2024/03/20 11:00:14;;;;;;;16.35;6.47;;;16.80;99.90;;;;;;5021429;28;20034;-75
2024/03/20 11:02:39;;;;;;;12.40;5.93;;;16.90;99.90;;;;;;5013535;28;20076;-75
2024/03/20 11:05:34;;;;;;;13.65;5.65;;;16.80;99.90;;;;;;5016138;28;20030;-74
2024/03/20 11:08:00;;;;;;;10.10;4.68;;;16.80;99.90;;;;;;5013517;28;20034;-75
2024/03/20 11:10:29;;;;;;;14.43;5.53;;;17.00;99.90;;;;;;5019665;28;20041;-74
2024/03/20 11:12:57;;;;;;;13.45;5.20;;;17.20;99.90;;;;;;5014538;28;20030;-74
2024/03/20 11:15:26;;;;;;;11.55;5.50;;;17.20;99.90;;;;;;5016057;28;20036;-74
2024/03/20 11:17:52;;;;;;;11.65;5.45;;;17.50;99.90;;;;;;5013957;28;20147;-77
2024/03/20 11:20:33;;;;;;;14.20;5.78;;;17.60;99.90;;;;;;5015790;28;20034;-75
2024/03/20 11:23:03;;;;;;;17.30;6.80;;;17.70;99.90;;;;;;5014933;28;20089;-77
2024/03/20 11:25:30;;;;;;;12.38;4.25;;;17.60;99.90;;;;;;5016253;28;20088;-75
2024/03/20 11:27:57;;;;;;;8.93;4.40;;;17.50;99.90;;;;;;5015757;28;20122;-76
2024/03/20 11:30:22;;;;;;;14.48;4.68;;;17.40;99.90;;;;;;5013440;28;20089;-76
2024/03/20 11:32:48;;;;;;;9.32;4.07;;;17.30;99.90;;;;;;5014275;28;20133;-74
2024/03/20 11:35:14;;;;;;;15.05;6.47;;;17.30;99.90;;;;;;5012099;28;20058;-74
2024/03/20 11:37:41;;;;;;;13.25;5.88;;;17.30;99.90;;;;;;5013492;28;20038;-78
2024/03/20 11:40:13;;;;;;;13.02;6.20;;;17.20;99.90;;;;;;5011995;28;20041;-76
2024/03/20 11:42:38;;;;;;;12.57;5.32;;;17.30;99.90;;;;;;5012700;28;20034;-74
2024/03/20 11:45:12;;;;;;;13.95;5.00;;;17.50;99.90;;;;;;5013973;28;20048;-74
2024/03/20 11:47:38;;;;;;;14.57;4.80;;;17.60;99.90;;;;;;5015075;28;20026;-74
2024/03/20 11:50:06;;;;;;;8.02;4.05;;;17.80;99.90;;;;;;5013204;28;20034;-75
2024/03/20 11:52:32;;;;;;;9.75;3.15;;;17.80;99.90;;;;;;5014615;28;20093;-77
2024/03/20 11:54:58;;;;;;;11.18;3.22;;;17.90;99.90;;;;;;5012994;28;20065;-76
2024/03/20 11:57:24;;;;;;;5.88;3.00;;;17.80;99.90;;;;;;5013998;28;20062;-76
2024/03/20 11:59:51;;;;;;;7.80;3.60;;;17.80;99.90;;;;;;5014608;28;20030;-77
2024/03/20 12:02:19;;;;;;;7.30;2.97;;;17.60;99.90;;;;;;5012603;28;20189;-75
2024/03/20 12:04:45;;;;;;;7.13;3.00;;;17.20;99.90;;;;;;5029034;28;20023;-78
2024/03/20 12:07:27;;;;;;;10.15;3.17;;;17.00;99.90;;;;;;5014490;28;20037;-75
2024/03/20 12:09:55;;;;;;;8.02;3.10;;;16.90;99.90;;;;;;5012493;28;20090;-77
2024/03/20 12:12:24;;;;;;;8.32;3.70;;;16.90;99.90;;;;;;5012372;28;20153;-77
2024/03/20 12:14:50;;;;;;;9.60;3.50;;;16.80;99.90;;;;;;5013441;28;20026;-76
2024/03/20 12:17:17;;;;;;;7.95;3.65;;;16.80;99.90;;;;;;5013573;28;20464;-77
2024/03/20 12:19:42;;;;;;;10.50;4.28;;;16.80;99.90;;;;;;5013559;28;20117;-75
2024/03/20 12:22:12;;;;;;;9.82;4.80;;;16.90;99.90;;;;;;5013023;28;20081;-77
2024/03/20 12:24:37;;;;;;;8.73;4.15;;;16.90;99.90;;;;;;5011960;28;20085;-76
2024/03/20 12:27:04;;;;;;;10.63;4.20;;;17.10;99.90;;;;;;5012274;28;20072;-75
2024/03/20 12:29:31;;;;;;;12.13;4.22;;;17.30;99.90;;;;;;5012373;28;20022;-76